createdAt,value
2024-03-22T00:01:00.729Z,66.30
2024-03-22T00:03:27.784Z,66.20
2024-03-22T00:05:54.541Z,55.40
2024-03-22T00:08:21.344Z,58.10
2024-03-22T00:10:48.252Z,55.30
2024-03-22T00:13:15.164Z,48.50
2024-03-22T00:15:43.919Z,37.60
2024-03-22T00:18:10.746Z,39.30
2024-03-22T00:20:37.654Z,39.70
2024-03-22T00:23:04.769Z,37.90
2024-03-22T00:25:32.394Z,41.80
2024-03-22T00:27:59.268Z,43.30
2024-03-22T00:30:25.985Z,41.30
2024-03-22T00:32:52.851Z,34.00
2024-03-22T00:35:19.548Z,39.70
2024-03-22T00:37:46.862Z,41.50
2024-03-22T00:40:13.767Z,46.40
2024-03-22T00:42:40.792Z,46.20
2024-03-22T00:45:07.964Z,42.60
2024-03-22T00:47:35.088Z,39.00
2024-03-22T00:50:03.146Z,38.40
2024-03-22T00:52:30.396Z,34.40
2024-03-22T00:54:57.427Z,36.50
2024-03-22T00:57:24.278Z,34.20
2024-03-22T00:59:51.047Z,36.10
2024-03-22T01:02:18.004Z,33.40
2024-03-22T01:04:44.781Z,32.50
2024-03-22T01:07:11.621Z,31.30
2024-03-22T01:09:38.702Z,27.70
2024-03-22T01:12:06.254Z,30.90
2024-03-22T01:14:33.110Z,24.50
2024-03-22T01:16:59.850Z,24.60
2024-03-22T01:19:26.562Z,22.10
2024-03-22T01:21:53.529Z,22.80
2024-03-22T01:24:20.513Z,19.50
2024-03-22T01:26:47.454Z,20.00
2024-03-22T01:29:15.020Z,18.50
2024-03-22T01:31:41.932Z,21.70
2024-03-22T01:34:08.962Z,24.50
2024-03-22T01:36:35.930Z,19.20
2024-03-22T01:39:03.431Z,20.20
2024-03-22T01:41:30.206Z,22.40
2024-03-22T01:43:57.564Z,21.90
2024-03-22T01:46:24.368Z,19.10
2024-03-22T01:48:51.558Z,21.80
2024-03-22T01:51:19.225Z,19.30
2024-03-22T01:53:46.177Z,22.20
2024-03-22T01:56:12.988Z,22.20
2024-03-22T01:58:41.678Z,20.30
2024-03-22T02:01:08.505Z,21.50
2024-03-22T02:03:35.389Z,23.00
2024-03-22T02:06:02.238Z,17.70
2024-03-22T02:08:29.435Z,16.40
2024-03-22T02:10:56.202Z,17.90
2024-03-22T02:13:23.061Z,19.00
2024-03-22T02:15:49.990Z,15.60
2024-03-22T02:18:16.850Z,21.70
2024-03-22T02:20:43.572Z,16.40
2024-03-22T02:23:10.434Z,13.10
2024-03-22T02:25:37.235Z,11.20
2024-03-22T02:28:04.993Z,12.90
2024-03-22T02:30:31.803Z,11.90
2024-03-22T02:32:58.531Z,13.00
2024-03-22T02:35:25.750Z,15.10
2024-03-22T02:37:52.792Z,13.70
2024-03-22T02:40:19.855Z,16.50
2024-03-22T02:42:46.539Z,12.80
2024-03-22T02:45:13.672Z,13.90
2024-03-22T02:47:40.573Z,13.60
2024-03-22T02:50:08.252Z,12.70
2024-03-22T02:52:35.128Z,14.70
2024-03-22T02:55:01.911Z,14.60
2024-03-22T02:57:28.913Z,13.70
2024-03-22T02:59:55.901Z,14.10
2024-03-22T03:02:22.733Z,12.70
2024-03-22T03:04:49.987Z,14.70
2024-03-22T03:07:17.593Z,16.50
2024-03-22T03:09:44.318Z,15.40
2024-03-22T03:12:13.056Z,14.10
2024-03-22T03:14:40.086Z,15.20
2024-03-22T03:17:06.912Z,12.60
2024-03-22T03:19:33.711Z,14.50
2024-03-22T03:22:00.682Z,15.70
2024-03-22T03:24:28.014Z,14.30
2024-03-22T03:26:54.960Z,14.20
2024-03-22T03:29:21.693Z,13.00
2024-03-22T03:31:49.943Z,11.90
2024-03-22T03:34:16.845Z,14.10
2024-03-22T03:36:43.953Z,13.50
2024-03-22T03:39:10.767Z,17.50
2024-03-22T03:41:37.447Z,16.60
2024-03-22T03:44:04.474Z,19.10
2024-03-22T03:46:31.442Z,19.20
2024-03-22T03:48:58.197Z,21.40
2024-03-22T03:51:25.196Z,23.30
2024-03-22T03:53:52.004Z,26.60
2024-03-22T03:56:18.881Z,25.40
2024-03-22T03:58:47.787Z,24.50
2024-03-22T04:01:14.639Z,28.00
2024-03-22T04:03:41.414Z,31.70
2024-03-22T04:06:08.255Z,32.40
2024-03-22T04:08:35.495Z,26.90
2024-03-22T04:11:02.545Z,31.40
2024-03-22T04:13:29.470Z,26.90
2024-03-22T04:15:59.664Z,30.20
2024-03-22T04:18:26.737Z,25.50
2024-03-22T04:21:00.623Z,28.90
2024-03-22T04:23:27.645Z,26.50
2024-03-22T04:25:56.100Z,26.40
2024-03-22T04:28:23.743Z,20.60
2024-03-22T04:31:03.535Z,21.60
2024-03-22T04:33:33.427Z,19.60
2024-03-22T04:36:00.741Z,21.00
2024-03-22T04:38:27.744Z,20.40
2024-03-22T04:40:55.518Z,21.70
2024-03-22T04:43:22.347Z,22.90
2024-03-22T04:45:49.285Z,20.80
2024-03-22T04:48:18.294Z,25.90
2024-03-22T04:50:46.289Z,25.40
2024-03-22T04:53:13.624Z,23.80
2024-03-22T04:55:45.805Z,19.50
2024-03-22T04:58:14.706Z,27.60
2024-03-22T05:00:42.622Z,31.40
2024-03-22T05:03:09.522Z,33.30
2024-03-22T05:05:36.500Z,37.80
2024-03-22T05:08:03.735Z,31.60
2024-03-22T05:10:31.264Z,28.60
2024-03-22T05:12:58.534Z,26.50
2024-03-22T05:15:28.920Z,29.90
2024-03-22T05:17:58.322Z,29.10
2024-03-22T05:20:25.261Z,25.80
2024-03-22T05:22:52.171Z,23.40
2024-03-22T05:25:19.255Z,25.80
2024-03-22T05:27:46.262Z,23.40
2024-03-22T05:30:14.510Z,23.40
2024-03-22T05:32:42.139Z,28.70
2024-03-22T05:35:09.424Z,28.60
2024-03-22T05:37:36.506Z,23.00
2024-03-22T05:40:05.903Z,21.70
2024-03-22T05:44:59.671Z,26.70
2024-03-22T05:47:34.222Z,36.80
2024-03-22T05:50:07.818Z,44.30
2024-03-22T05:55:01.792Z,26.10
2024-03-22T05:57:29.401Z,30.30
2024-03-22T05:59:56.277Z,20.70
2024-03-22T06:02:24.439Z,45.30
2024-03-22T06:04:51.365Z,48.40
2024-03-22T06:07:18.944Z,32.40
2024-03-22T06:09:48.641Z,30.70
2024-03-22T06:12:16.316Z,33.70
2024-03-22T06:14:47.938Z,53.60
2024-03-22T06:17:14.799Z,68.20
2024-03-22T06:19:41.650Z,59.00
2024-03-22T06:22:10.193Z,35.10
2024-03-22T06:24:37.344Z,21.70
2024-03-22T06:27:04.588Z,19.70
2024-03-22T06:29:31.435Z,18.20
2024-03-22T06:31:58.290Z,19.80
2024-03-22T06:34:25.750Z,17.80
2024-03-22T06:36:52.846Z,22.70
2024-03-22T06:39:20.864Z,20.40
2024-03-22T06:41:48.146Z,22.90
2024-03-22T06:44:15.227Z,20.30
2024-03-22T06:46:42.107Z,21.00
2024-03-22T06:49:08.887Z,15.50
2024-03-22T06:51:35.895Z,11.50
2024-03-22T06:54:02.664Z,10.90
2024-03-22T06:56:29.787Z,12.50
2024-03-22T06:58:56.832Z,11.40
2024-03-22T07:01:23.557Z,8.20
2024-03-22T07:03:50.295Z,13.00
2024-03-22T07:06:17.115Z,12.70
2024-03-22T07:08:44.107Z,12.90
2024-03-22T07:11:10.891Z,10.40
2024-03-22T07:13:37.969Z,8.70
2024-03-22T07:16:05.539Z,8.10
2024-03-22T07:18:32.987Z,6.80
2024-03-22T07:21:02.430Z,10.80
2024-03-22T07:23:29.605Z,9.30
2024-03-22T07:25:56.686Z,9.70
2024-03-22T07:28:23.839Z,11.80
2024-03-22T07:38:26.899Z,10.60
2024-03-22T07:40:54.250Z,8.50
2024-03-22T07:43:21.047Z,7.90
2024-03-22T07:45:48.024Z,7.70
2024-03-22T07:48:15.218Z,5.50
2024-03-22T07:50:42.418Z,7.60
2024-03-22T07:53:09.246Z,8.70
2024-03-22T07:55:36.579Z,7.00
2024-03-22T07:58:03.810Z,5.30
2024-03-22T08:00:30.795Z,6.40
2024-03-22T08:02:57.706Z,8.70
2024-03-22T08:05:24.606Z,7.80
2024-03-22T08:07:51.429Z,5.80
2024-03-22T08:10:18.338Z,6.30
2024-03-22T08:12:45.692Z,8.80
2024-03-22T08:15:12.484Z,5.60
2024-03-22T08:17:41.937Z,5.10
2024-03-22T08:20:09.003Z,6.30
2024-03-22T08:22:35.981Z,6.50
2024-03-22T08:25:04.869Z,7.60
2024-03-22T08:30:10.719Z,9.00
2024-03-22T08:32:38.459Z,6.60
2024-03-22T08:35:05.698Z,5.60
2024-03-22T08:37:34.188Z,6.70
2024-03-22T08:40:01.205Z,7.10
2024-03-22T08:42:27.921Z,7.10
2024-03-22T08:44:54.741Z,6.30
2024-03-22T08:47:21.907Z,7.20
2024-03-22T08:49:48.792Z,6.70
2024-03-22T08:52:16.157Z,23.80
2024-03-22T08:54:43.184Z,9.40
2024-03-22T08:57:10.454Z,7.60
2024-03-22T08:59:39.052Z,4.60
2024-03-22T09:02:05.962Z,5.60
2024-03-22T09:04:32.731Z,7.00
2024-03-22T09:06:59.670Z,9.20
2024-03-22T09:09:26.627Z,5.20
2024-03-22T09:11:53.967Z,6.70
2024-03-22T09:14:21.434Z,8.50
2024-03-22T09:16:48.431Z,5.10
2024-03-22T09:19:15.312Z,5.10
2024-03-22T09:21:42.147Z,5.30
2024-03-22T09:24:08.865Z,6.90
2024-03-22T09:26:36.018Z,5.00
2024-03-22T09:29:02.818Z,4.40
2024-03-22T09:31:29.790Z,5.60
2024-03-22T09:33:56.675Z,7.60
2024-03-22T09:36:23.575Z,6.80
2024-03-22T09:38:50.415Z,6.60
2024-03-22T09:41:17.152Z,6.40
2024-03-22T09:43:45.380Z,7.00
2024-03-22T09:46:13.974Z,5.70
2024-03-22T09:48:42.136Z,5.10
2024-03-22T09:51:09.006Z,6.20
2024-03-22T09:53:36.133Z,6.50
2024-03-22T09:56:03.238Z,4.70
2024-03-22T09:58:30.535Z,3.10
2024-03-22T10:01:01.585Z,3.90
2024-03-22T10:03:28.583Z,5.80
2024-03-22T10:05:55.620Z,6.30
2024-03-22T10:08:22.502Z,5.90
2024-03-22T10:10:49.283Z,3.70
2024-03-22T10:13:16.116Z,4.30
2024-03-22T10:15:42.794Z,3.60
2024-03-22T10:18:11.222Z,4.90
2024-03-22T10:20:38.226Z,5.50
2024-03-22T10:23:04.929Z,4.30
2024-03-22T10:25:31.696Z,3.70
2024-03-22T10:28:00.207Z,5.00
2024-03-22T10:30:27.604Z,5.00
2024-03-22T10:32:54.452Z,6.50
2024-03-22T10:35:21.421Z,5.60
2024-03-22T10:37:50.866Z,4.30
2024-03-22T10:40:19.437Z,4.50
2024-03-22T10:42:46.432Z,6.50
2024-03-22T10:45:13.520Z,8.30
2024-03-22T10:47:40.755Z,6.50
2024-03-22T10:50:10.262Z,5.70
2024-03-22T10:52:39.915Z,7.50
2024-03-22T10:55:10.866Z,6.30
2024-03-22T10:57:38.410Z,17.50
2024-03-22T11:00:11.016Z,53.00
2024-03-22T11:02:38.484Z,17.50
2024-03-22T11:05:06.396Z,12.50
2024-03-22T11:07:33.242Z,21.80
2024-03-22T11:10:05.293Z,23.30
2024-03-22T11:12:34.687Z,27.90
2024-03-22T11:15:01.382Z,11.90
2024-03-22T11:17:28.212Z,6.10
2024-03-22T11:19:58.302Z,6.50
2024-03-22T11:22:26.528Z,10.70
2024-03-22T11:24:53.800Z,7.30
2024-03-22T11:27:21.051Z,4.90
2024-03-22T11:29:47.844Z,6.50
2024-03-22T11:32:16.066Z,6.70
2024-03-22T11:34:46.129Z,5.70
2024-03-22T11:37:13.252Z,3.70
2024-03-22T11:39:40.111Z,5.60
2024-03-22T11:42:07.870Z,6.40
2024-03-22T11:44:35.051Z,6.30
2024-03-22T11:47:01.772Z,7.90
2024-03-22T11:49:29.262Z,3.90
2024-03-22T11:51:57.816Z,4.40
2024-03-22T11:54:24.949Z,4.30
2024-03-22T11:56:52.940Z,7.20
2024-03-22T11:59:22.424Z,13.10
2024-03-22T12:01:49.449Z,8.30
2024-03-22T12:04:16.420Z,6.30
2024-03-22T12:06:46.106Z,7.50
2024-03-22T12:09:14.506Z,6.50
2024-03-22T12:11:41.557Z,7.70
2024-03-22T12:14:08.245Z,5.10
2024-03-22T12:16:35.028Z,5.20
2024-03-22T12:19:01.867Z,7.00
2024-03-22T12:21:28.733Z,10.40
2024-03-22T12:23:55.468Z,7.10
2024-03-22T12:26:22.240Z,12.00
2024-03-22T12:28:48.909Z,14.40
2024-03-22T12:31:18.017Z,7.40
2024-03-22T12:33:45.177Z,9.00
2024-03-22T12:36:12.027Z,7.80
2024-03-22T12:38:38.838Z,6.70
2024-03-22T12:41:06.941Z,7.20
2024-03-22T12:43:38.041Z,7.00
2024-03-22T12:46:08.020Z,4.20
2024-03-22T12:48:34.801Z,7.10
2024-03-22T12:51:01.622Z,7.00
2024-03-22T12:53:28.657Z,6.30
2024-03-22T12:55:55.330Z,5.70
2024-03-22T12:58:22.120Z,5.80
2024-03-22T13:00:48.841Z,9.00
2024-03-22T13:03:16.852Z,5.50
2024-03-22T13:05:43.595Z,5.30
2024-03-22T13:08:10.613Z,5.00
2024-03-22T13:10:37.370Z,6.60
2024-03-22T13:13:04.245Z,11.70
2024-03-22T13:15:33.217Z,8.60
2024-03-22T13:18:00.009Z,10.30
2024-03-22T13:20:26.790Z,5.90
2024-03-22T13:22:53.568Z,7.10
2024-03-22T13:25:20.421Z,4.80
2024-03-22T13:27:47.129Z,6.00
2024-03-22T13:30:15.590Z,19.50
2024-03-22T13:32:42.464Z,17.80
2024-03-22T13:35:09.792Z,32.10
2024-03-22T13:37:36.526Z,17.60
2024-03-22T13:40:03.826Z,11.80
2024-03-22T13:42:30.924Z,12.60
2024-03-22T13:44:58.116Z,7.20
2024-03-22T13:47:25.797Z,10.50
2024-03-22T13:49:52.565Z,7.80
2024-03-22T13:52:19.329Z,7.30
2024-03-22T13:54:46.434Z,7.20
2024-03-22T13:57:13.268Z,4.80
2024-03-22T13:59:40.883Z,12.50
2024-03-22T14:02:08.870Z,6.50
2024-03-22T14:04:36.023Z,6.40
2024-03-22T14:07:05.840Z,8.50
2024-03-22T14:09:33.220Z,10.30
2024-03-22T14:12:00.749Z,7.90
2024-03-22T14:14:27.798Z,9.90
2024-03-22T14:16:54.965Z,15.10
2024-03-22T14:19:21.672Z,5.90
2024-03-22T14:21:48.492Z,7.30
2024-03-22T14:24:15.216Z,6.60
2024-03-22T14:26:44.730Z,6.40
2024-03-22T14:29:14.548Z,10.60
2024-03-22T14:31:43.510Z,6.50
2024-03-22T14:34:10.430Z,6.80
2024-03-22T14:36:37.241Z,18.50
2024-03-22T14:39:06.363Z,10.60
2024-03-22T14:41:33.587Z,12.60
2024-03-22T14:44:00.354Z,12.10
2024-03-22T14:46:29.530Z,7.70
2024-03-22T14:48:56.682Z,12.60
2024-03-22T14:51:26.593Z,11.70
2024-03-22T14:53:53.673Z,8.50
2024-03-22T14:56:20.580Z,8.50
2024-03-22T14:58:47.320Z,14.40
2024-03-22T15:01:14.113Z,11.30
2024-03-22T15:03:40.866Z,10.40
2024-03-22T15:06:07.583Z,15.00
2024-03-22T15:08:34.590Z,18.00
2024-03-22T15:11:01.513Z,19.10
2024-03-22T15:13:28.963Z,13.80
2024-03-22T15:16:00.175Z,15.60
2024-03-22T15:18:30.102Z,16.90
2024-03-22T15:20:56.833Z,22.70
2024-03-22T15:23:23.646Z,27.30
2024-03-22T15:25:50.398Z,25.10
2024-03-22T15:28:17.173Z,27.10
2024-03-22T15:30:45.496Z,20.40
2024-03-22T15:33:12.650Z,18.50
2024-03-22T15:35:39.630Z,16.70
2024-03-22T15:38:06.453Z,17.00
2024-03-22T15:40:33.340Z,15.70
2024-03-22T15:43:00.803Z,16.50
2024-03-22T15:45:28.236Z,16.30
2024-03-22T15:47:55.015Z,22.00
2024-03-22T15:50:24.581Z,13.80
2024-03-22T15:52:52.963Z,13.50
2024-03-22T15:55:19.722Z,19.20
2024-03-22T15:57:46.452Z,18.00
2024-03-22T16:00:13.914Z,20.30
2024-03-22T16:02:40.910Z,15.00
2024-03-22T16:05:08.411Z,20.70
2024-03-22T16:07:35.749Z,16.80
2024-03-22T16:10:04.299Z,17.20
2024-03-22T16:12:31.226Z,15.80
2024-03-22T16:14:58.615Z,17.70
2024-03-22T16:17:25.340Z,16.80
2024-03-22T16:20:30.320Z,15.80
2024-03-22T16:22:57.186Z,16.70
2024-03-22T16:25:23.924Z,17.50
2024-03-22T16:27:51.810Z,18.20
2024-03-22T16:30:18.864Z,19.30
2024-03-22T16:32:45.707Z,32.40
2024-03-22T16:35:15.822Z,28.20
2024-03-22T16:37:42.885Z,24.20
2024-03-22T16:40:10.629Z,26.80
2024-03-22T16:42:50.655Z,34.50
2024-03-22T16:45:18.321Z,32.90
2024-03-22T16:47:45.546Z,41.40
2024-03-22T16:50:12.934Z,35.30
2024-03-22T16:52:39.871Z,33.70
2024-03-22T16:55:10.391Z,35.60
2024-03-22T16:57:37.608Z,38.80
2024-03-22T17:00:05.420Z,40.00
2024-03-22T17:02:32.364Z,41.30
2024-03-22T17:04:59.351Z,38.10
2024-03-22T17:07:26.191Z,41.90
2024-03-22T17:09:53.576Z,38.50
2024-03-22T17:12:20.747Z,34.10
2024-03-22T17:14:48.235Z,43.30
2024-03-22T17:17:15.253Z,38.80
2024-03-22T17:19:42.189Z,37.70
2024-03-22T17:22:09.135Z,36.60
2024-03-22T17:24:36.189Z,37.70
2024-03-22T17:27:03.445Z,59.70
2024-03-22T17:29:30.477Z,37.50
2024-03-22T17:31:57.343Z,37.30
2024-03-22T17:34:24.422Z,36.30
2024-03-22T17:36:51.443Z,42.60
2024-03-22T17:39:18.380Z,37.70
2024-03-22T17:41:45.409Z,31.70
2024-03-22T17:44:12.266Z,44.10
2024-03-22T17:46:39.190Z,49.50
2024-03-22T17:49:06.384Z,55.50
2024-03-22T17:51:33.577Z,33.00
2024-03-22T17:54:00.387Z,36.50
2024-03-22T17:56:27.342Z,21.50
2024-03-22T17:58:54.273Z,26.00
2024-03-22T18:01:21.193Z,22.70
2024-03-22T18:03:49.399Z,44.00
2024-03-22T18:06:16.242Z,37.60
2024-03-22T18:08:43.080Z,39.70
2024-03-22T18:11:11.007Z,51.90
2024-03-22T18:13:40.506Z,74.10
2024-03-22T18:16:07.388Z,57.50
2024-03-22T18:18:34.401Z,39.50
2024-03-22T18:21:01.637Z,51.20
2024-03-22T18:23:31.232Z,53.50
2024-03-22T18:25:59.515Z,40.40
2024-03-22T18:28:26.763Z,32.10
2024-03-22T18:30:53.695Z,36.60
2024-03-22T18:33:20.531Z,28.60
2024-03-22T18:35:47.624Z,30.00
2024-03-22T18:38:14.552Z,36.50
2024-03-22T18:40:41.509Z,32.60
2024-03-22T18:43:08.629Z,22.80
2024-03-22T18:45:35.382Z,29.70
2024-03-22T18:48:02.325Z,38.10
2024-03-22T18:50:29.495Z,24.40
2024-03-22T18:52:56.731Z,24.50
2024-03-22T18:55:23.642Z,25.50
2024-03-22T18:57:50.807Z,24.50
2024-03-22T19:00:18.609Z,25.70
2024-03-22T19:02:45.684Z,27.30
2024-03-22T19:05:12.896Z,22.20
2024-03-22T19:07:39.936Z,26.10
2024-03-22T19:10:09.354Z,23.40
2024-03-22T19:12:36.597Z,24.80
2024-03-22T19:15:03.686Z,23.00
2024-03-22T19:17:31.188Z,19.90
2024-03-22T19:19:58.121Z,28.20
2024-03-22T19:22:25.066Z,29.10
2024-03-22T19:24:52.558Z,23.00
2024-03-22T19:27:19.775Z,18.60
2024-03-22T19:29:47.228Z,18.10
2024-03-22T19:32:14.391Z,23.30
2024-03-22T19:34:41.421Z,21.10
2024-03-22T19:37:09.811Z,18.70
2024-03-22T19:39:37.488Z,23.10
2024-03-22T19:42:04.921Z,18.30
2024-03-22T19:44:32.161Z,21.60
2024-03-22T19:47:02.150Z,19.30
2024-03-22T19:49:29.848Z,33.40
2024-03-22T19:51:57.670Z,34.00
2024-03-22T19:54:25.709Z,23.50
2024-03-22T19:56:52.634Z,24.00
2024-03-22T19:59:21.425Z,22.70
2024-03-22T20:01:48.562Z,31.00
2024-03-22T20:04:15.342Z,23.70
2024-03-22T20:06:42.344Z,22.40
2024-03-22T20:09:09.603Z,17.90
2024-03-22T20:11:36.856Z,21.10
2024-03-22T20:21:44.740Z,16.50
2024-03-22T20:24:12.274Z,22.80
2024-03-22T20:26:39.359Z,38.70
2024-03-22T20:29:06.852Z,30.80
2024-03-22T20:31:42.384Z,21.60
2024-03-22T20:34:10.502Z,23.20
2024-03-22T20:36:37.550Z,22.30
2024-03-22T20:39:04.329Z,23.10
2024-03-22T20:41:32.754Z,33.60
2024-03-22T20:43:59.608Z,43.30
2024-03-22T20:46:26.436Z,33.40
2024-03-22T20:48:56.305Z,37.00
2024-03-22T20:51:23.298Z,38.20
2024-03-22T20:53:50.144Z,45.90
2024-03-22T20:56:17.097Z,39.20
2024-03-22T20:58:44.143Z,26.40
2024-03-22T21:01:10.840Z,36.50
2024-03-22T21:03:38.005Z,27.30
2024-03-22T21:06:04.953Z,35.00
2024-03-22T21:08:31.806Z,28.00
2024-03-22T21:10:58.670Z,25.40
2024-03-22T21:13:25.617Z,27.20
2024-03-22T21:15:53.751Z,18.90
2024-03-22T21:18:20.615Z,26.10
2024-03-22T21:20:47.464Z,24.40
2024-03-22T21:23:14.256Z,21.10
2024-03-22T21:25:41.324Z,19.20
2024-03-22T21:28:08.379Z,15.10
2024-03-22T21:30:35.220Z,17.70
2024-03-22T21:33:02.148Z,13.80
2024-03-22T21:35:29.308Z,15.30
2024-03-22T21:37:56.009Z,16.40
2024-03-22T21:40:23.104Z,16.80
2024-03-22T21:42:49.988Z,17.60
2024-03-22T21:45:17.340Z,15.90
2024-03-22T21:47:44.843Z,16.40
2024-03-22T21:50:11.820Z,15.10
2024-03-22T21:52:39.038Z,14.80
2024-03-22T21:55:07.068Z,14.10
2024-03-22T21:57:33.947Z,22.60
2024-03-22T22:00:05.294Z,23.90
2024-03-22T22:02:34.125Z,15.30
2024-03-22T22:05:02.084Z,14.40
2024-03-22T22:07:28.914Z,14.40
2024-03-22T22:09:56.036Z,16.40
2024-03-22T22:12:23.692Z,17.80
2024-03-22T22:14:53.618Z,13.70
2024-03-22T22:17:21.929Z,16.30
2024-03-22T22:19:50.040Z,14.30
2024-03-22T22:22:17.034Z,15.20
2024-03-22T22:24:44.184Z,15.70
2024-03-22T22:27:12.007Z,17.40
2024-03-22T22:29:38.840Z,15.20
2024-03-22T22:32:05.738Z,15.20
2024-03-22T22:34:32.462Z,19.80
2024-03-22T22:36:59.162Z,14.10
2024-03-22T22:39:26.043Z,13.20
2024-03-22T22:41:53.266Z,15.10
2024-03-22T22:44:20.048Z,15.20
2024-03-22T22:46:46.805Z,14.90
2024-03-22T22:49:13.703Z,13.70
2024-03-22T22:51:40.443Z,16.50
2024-03-22T22:54:07.205Z,14.90
2024-03-22T22:56:34.027Z,13.70
2024-03-22T22:59:00.721Z,17.30
2024-03-22T23:01:27.688Z,17.30
2024-03-22T23:03:54.740Z,13.60
2024-03-22T23:06:21.582Z,15.20
2024-03-22T23:08:49.632Z,13.90
2024-03-22T23:11:16.403Z,14.00
2024-03-22T23:13:43.171Z,11.50
2024-03-22T23:16:10.011Z,15.50
2024-03-22T23:18:36.975Z,14.00
2024-03-22T23:21:04.796Z,13.30
2024-03-22T23:23:31.588Z,14.90
2024-03-22T23:26:01.480Z,14.50
2024-03-22T23:28:28.275Z,12.90
2024-03-22T23:30:55.321Z,15.60
2024-03-22T23:33:22.301Z,14.70
2024-03-22T23:35:49.085Z,12.40
2024-03-22T23:38:16.217Z,16.30
2024-03-22T23:40:43.008Z,14.20
2024-03-22T23:43:09.859Z,12.70
2024-03-22T23:45:36.694Z,13.50
2024-03-22T23:48:03.482Z,13.10
2024-03-22T23:50:30.683Z,13.60
2024-03-22T23:52:57.797Z,14.50
2024-03-22T23:55:25.033Z,13.00
2024-03-22T23:57:52.092Z,13.50
